Terminal Aerodrome Forecast
Issued by NWS

Home | Current Version | Previous Version | Text Only | Print | Product List | Glossary On
Versions: 1 2 3 4 5 6 7 8 9 10 11 12 13 14 15
000
FTUS42 TJSJ 031756 AAA
TAFISX
TAF AMD
TISX 031756Z 0318/0418 09020KT P6SM SCT025 SCT040
     FM032300 08012KT P6SM VCSH FEW025 SCT050
     FM041330 10020KT P6SM SCT025 SCT040=

USA.gov is the U.S. government's official web portal to all federal, state and local government web resources and services.